G44MA EGJB-EGHH
Flight info
| Callsign | G44MA |
|---|---|
| Flight time | 1h 2m |
| Altitude | 5000 |
| Route | ORTAC DCT THRED |
| Aircraft | C172/L-SFG/C |
Departure
| Time | 2026-05-04 18:09 |
|---|---|
| Airport | Guernsey Airport (EGJB) |
Arrival
| Time | 2026-05-04 19:12 |
|---|---|
| Airport | Bournemouth Airport (EGHH) |
| Time | Latitude | Longitude | Altitude | Speed | Heading |
|---|---|---|---|---|---|
| 2026-05-04 17:51 | 49.43293 | -2.60217 | 318 ft | 0 kts | 67° |
| 2026-05-04 18:05 | 49.43300 | -2.60204 | 318 ft | 4 kts | 40° |
| 2026-05-04 18:05 | 49.43332 | -2.60206 | 318 ft | 4 kts | 330° |
| 2026-05-04 18:05 | 49.43333 | -2.60267 | 317 ft | 10 kts | 265° |
| 2026-05-04 18:06 | 49.43327 | -2.60569 | 307 ft | 5 kts | 267° |
| 2026-05-04 18:06 | 49.43332 | -2.60628 | 306 ft | 5 kts | 311° |
| 2026-05-04 18:06 | 49.43374 | -2.60654 | 305 ft | 0 kts | 4° |
| 2026-05-04 18:07 | 49.43375 | -2.60654 | 306 ft | 0 kts | 3° |
| 2026-05-04 18:07 | 49.43381 | -2.60653 | 306 ft | 6 kts | 359° |
| 2026-05-04 18:08 | 49.43468 | -2.60654 | 306 ft | 8 kts | 5° |
| 2026-05-04 18:08 | 49.43483 | -2.60647 | 306 ft | 4 kts | 51° |
| 2026-05-04 18:08 | 49.43486 | -2.60634 | 306 ft | 0 kts | 83° |
| 2026-05-04 18:08 | 49.43488 | -2.60602 | 307 ft | 19 kts | 79° |
| 2026-05-04 18:09 | 49.43539 | -2.59381 | 631 ft | 69 kts | 80° |
| 2026-05-04 18:09 | 49.43538 | -2.57811 | 1104 ft | 77 kts | 83° |
| 2026-05-04 18:10 | 49.43547 | -2.56996 | 1329 ft | 78 kts | 82° |
| 2026-05-04 18:10 | 49.43563 | -2.56165 | 1561 ft | 78 kts | 81° |
| 2026-05-04 18:10 | 49.43584 | -2.55327 | 1788 ft | 78 kts | 81° |
| 2026-05-04 18:10 | 49.43608 | -2.54511 | 2012 ft | 78 kts | 81° |
| 2026-05-04 18:11 | 49.43636 | -2.53690 | 2243 ft | 77 kts | 81° |
| 2026-05-04 18:11 | 49.43711 | -2.52888 | 2473 ft | 74 kts | 59° |
| 2026-05-04 18:11 | 49.44087 | -2.52392 | 2703 ft | 72 kts | 28° |
| 2026-05-04 18:11 | 49.44531 | -2.52055 | 2925 ft | 72 kts | 25° |
| 2026-05-04 18:12 | 49.45005 | -2.51793 | 3153 ft | 72 kts | 19° |
| 2026-05-04 18:12 | 49.45489 | -2.51604 | 3376 ft | 72 kts | 15° |
| 2026-05-04 18:12 | 49.45979 | -2.51461 | 3599 ft | 72 kts | 12° |
| 2026-05-04 18:12 | 49.46492 | -2.51348 | 3779 ft | 77 kts | 10° |
| 2026-05-04 18:13 | 49.47057 | -2.51247 | 3934 ft | 87 kts | 8° |
| 2026-05-04 18:13 | 49.47713 | -2.51152 | 3981 ft | 100 kts | 8° |
| 2026-05-04 18:13 | 49.49188 | -2.50990 | 3983 ft | 109 kts | 6° |
| 2026-05-04 18:14 | 49.49950 | -2.50924 | 3982 ft | 110 kts | 6° |
| 2026-05-04 18:14 | 49.50711 | -2.50867 | 3982 ft | 110 kts | 6° |
| 2026-05-04 18:14 | 49.51470 | -2.50813 | 3982 ft | 110 kts | 6° |
| 2026-05-04 18:15 | 49.53004 | -2.50711 | 3982 ft | 110 kts | 6° |
| 2026-05-04 18:15 | 49.54529 | -2.50613 | 3983 ft | 110 kts | 5° |
| 2026-05-04 18:15 | 49.55299 | -2.50564 | 3980 ft | 110 kts | 5° |
| 2026-05-04 18:16 | 49.56064 | -2.50516 | 3979 ft | 111 kts | 5° |
| 2026-05-04 18:16 | 49.56821 | -2.50352 | 3974 ft | 108 kts | 24° |
| 2026-05-04 18:16 | 49.57496 | -2.49846 | 3973 ft | 108 kts | 29° |
| 2026-05-04 18:17 | 49.58821 | -2.48739 | 3971 ft | 108 kts | 30° |
| 2026-05-04 18:17 | 49.59462 | -2.48196 | 4080 ft | 101 kts | 30° |
| 2026-05-04 18:17 | 49.60656 | -2.47184 | 4325 ft | 97 kts | 30° |
| 2026-05-04 18:18 | 49.61243 | -2.46685 | 4448 ft | 97 kts | 30° |
| 2026-05-04 18:18 | 49.61835 | -2.46181 | 4574 ft | 96 kts | 30° |
| 2026-05-04 18:18 | 49.62417 | -2.45684 | 4697 ft | 96 kts | 30° |
| 2026-05-04 18:18 | 49.63011 | -2.45177 | 4810 ft | 97 kts | 30° |
| 2026-05-04 18:19 | 49.64229 | -2.44133 | 4955 ft | 102 kts | 30° |
| 2026-05-04 18:19 | 49.64867 | -2.43585 | 4970 ft | 106 kts | 30° |
| 2026-05-04 18:19 | 49.65512 | -2.43029 | 4971 ft | 108 kts | 30° |
| 2026-05-04 18:20 | 49.66174 | -2.42460 | 4972 ft | 109 kts | 30° |
| 2026-05-04 18:20 | 49.66838 | -2.41889 | 4972 ft | 109 kts | 30° |
| 2026-05-04 18:20 | 49.67508 | -2.41313 | 4973 ft | 109 kts | 30° |
| 2026-05-04 18:20 | 49.68147 | -2.40764 | 4972 ft | 104 kts | 30° |
| 2026-05-04 18:21 | 49.68779 | -2.40220 | 4973 ft | 103 kts | 30° |
| 2026-05-04 18:21 | 49.69406 | -2.39683 | 4972 ft | 102 kts | 30° |
| 2026-05-04 18:21 | 49.70020 | -2.39156 | 4971 ft | 101 kts | 30° |
| 2026-05-04 18:21 | 49.70589 | -2.38511 | 4971 ft | 101 kts | 39° |
| 2026-05-04 18:22 | 49.71131 | -2.37821 | 4972 ft | 101 kts | 40° |
| 2026-05-04 18:22 | 49.71677 | -2.37122 | 4972 ft | 102 kts | 40° |
| 2026-05-04 18:22 | 49.72218 | -2.36425 | 4972 ft | 102 kts | 40° |
| 2026-05-04 18:22 | 49.72768 | -2.35719 | 4972 ft | 102 kts | 40° |
| 2026-05-04 18:23 | 49.73310 | -2.35021 | 4973 ft | 102 kts | 40° |
| 2026-05-04 18:23 | 49.73860 | -2.34312 | 4975 ft | 102 kts | 41° |
| 2026-05-04 18:23 | 49.74401 | -2.33615 | 4974 ft | 102 kts | 41° |
| 2026-05-04 18:23 | 49.74943 | -2.32914 | 4975 ft | 101 kts | 41° |
| 2026-05-04 18:24 | 49.75493 | -2.32206 | 4975 ft | 102 kts | 41° |
| 2026-05-04 18:24 | 49.76030 | -2.31512 | 4974 ft | 101 kts | 41° |
| 2026-05-04 18:24 | 49.76578 | -2.30805 | 4974 ft | 101 kts | 40° |
| 2026-05-04 18:24 | 49.77118 | -2.30108 | 4976 ft | 101 kts | 40° |
| 2026-05-04 18:25 | 49.77654 | -2.29416 | 4979 ft | 101 kts | 40° |
| 2026-05-04 18:25 | 49.78193 | -2.28721 | 4982 ft | 101 kts | 40° |
| 2026-05-04 18:25 | 49.78733 | -2.28022 | 4984 ft | 101 kts | 40° |
| 2026-05-04 18:25 | 49.79275 | -2.27323 | 4985 ft | 102 kts | 40° |
| 2026-05-04 18:26 | 49.79820 | -2.26620 | 4984 ft | 102 kts | 40° |
| 2026-05-04 18:26 | 49.80366 | -2.25912 | 4983 ft | 102 kts | 40° |
| 2026-05-04 18:26 | 49.80918 | -2.25198 | 4984 ft | 102 kts | 41° |
| 2026-05-04 18:26 | 49.81459 | -2.24499 | 4983 ft | 102 kts | 41° |
| 2026-05-04 18:27 | 49.82008 | -2.23789 | 4984 ft | 102 kts | 41° |
| 2026-05-04 18:27 | 49.82546 | -2.23092 | 4984 ft | 102 kts | 41° |
| 2026-05-04 18:27 | 49.83098 | -2.22377 | 4985 ft | 103 kts | 41° |
| 2026-05-04 18:27 | 49.83660 | -2.21648 | 4985 ft | 107 kts | 41° |
| 2026-05-04 18:28 | 49.84232 | -2.20906 | 4984 ft | 108 kts | 41° |
| 2026-05-04 18:28 | 49.84807 | -2.20157 | 4982 ft | 108 kts | 40° |
| 2026-05-04 18:28 | 49.85382 | -2.19409 | 4983 ft | 108 kts | 40° |
| 2026-05-04 18:28 | 49.85960 | -2.18657 | 4982 ft | 109 kts | 40° |
| 2026-05-04 18:29 | 49.86540 | -2.17903 | 4982 ft | 109 kts | 40° |
| 2026-05-04 18:29 | 49.87130 | -2.17136 | 4981 ft | 110 kts | 40° |
| 2026-05-04 18:29 | 49.87716 | -2.16375 | 4981 ft | 110 kts | 40° |
| 2026-05-04 18:29 | 49.88296 | -2.15620 | 4981 ft | 110 kts | 41° |
| 2026-05-04 18:30 | 49.89470 | -2.14094 | 4982 ft | 109 kts | 41° |
| 2026-05-04 18:30 | 49.90054 | -2.13335 | 4982 ft | 109 kts | 41° |
| 2026-05-04 18:30 | 49.90633 | -2.12580 | 4981 ft | 109 kts | 41° |
| 2026-05-04 18:31 | 49.91213 | -2.11825 | 4981 ft | 109 kts | 41° |
| 2026-05-04 18:31 | 49.91788 | -2.11074 | 4981 ft | 109 kts | 40° |
| 2026-05-04 18:31 | 49.92374 | -2.10311 | 4981 ft | 109 kts | 40° |
| 2026-05-04 18:31 | 49.92954 | -2.09557 | 4980 ft | 109 kts | 40° |
| 2026-05-04 18:32 | 49.93533 | -2.08801 | 4980 ft | 109 kts | 40° |
| 2026-05-04 18:32 | 49.94115 | -2.08042 | 4980 ft | 109 kts | 40° |
| 2026-05-04 18:32 | 49.94700 | -2.07281 | 4980 ft | 109 kts | 40° |
| 2026-05-04 18:32 | 49.95289 | -2.06515 | 4979 ft | 109 kts | 40° |
| 2026-05-04 18:33 | 49.95871 | -2.05758 | 4978 ft | 109 kts | 41° |
| 2026-05-04 18:33 | 49.96450 | -2.05003 | 4977 ft | 109 kts | 41° |
| 2026-05-04 18:33 | 49.97031 | -2.04245 | 4978 ft | 109 kts | 41° |
| 2026-05-04 18:33 | 49.97610 | -2.03488 | 4979 ft | 109 kts | 41° |
| 2026-05-04 18:34 | 49.98192 | -2.02727 | 4979 ft | 109 kts | 41° |
| 2026-05-04 18:34 | 49.98781 | -2.01956 | 4980 ft | 109 kts | 41° |
| 2026-05-04 18:34 | 49.99365 | -2.01192 | 4979 ft | 110 kts | 40° |
| 2026-05-04 18:34 | 50.00007 | -2.00578 | 4975 ft | 110 kts | 17° |
| 2026-05-04 18:35 | 50.00754 | -2.00360 | 4978 ft | 110 kts | 11° |
| 2026-05-04 18:35 | 50.01526 | -2.00183 | 4979 ft | 111 kts | 11° |
| 2026-05-04 18:35 | 50.02280 | -2.00019 | 4979 ft | 111 kts | 10° |
| 2026-05-04 18:35 | 50.03048 | -1.99853 | 4978 ft | 111 kts | 10° |
| 2026-05-04 18:36 | 50.03810 | -1.99692 | 4978 ft | 111 kts | 10° |
| 2026-05-04 18:36 | 50.04582 | -1.99530 | 4977 ft | 111 kts | 10° |
| 2026-05-04 18:36 | 50.05326 | -1.99255 | 4973 ft | 110 kts | 32° |
| 2026-05-04 18:36 | 50.05859 | -1.98425 | 4978 ft | 109 kts | 47° |
| 2026-05-04 18:37 | 50.06399 | -1.97582 | 4978 ft | 109 kts | 43° |
| 2026-05-04 18:37 | 50.06979 | -1.96822 | 4977 ft | 109 kts | 39° |
| 2026-05-04 18:37 | 50.07595 | -1.96125 | 4977 ft | 110 kts | 35° |
| 2026-05-04 18:37 | 50.08241 | -1.95474 | 4977 ft | 110 kts | 33° |
| 2026-05-04 18:38 | 50.08900 | -1.94866 | 4977 ft | 109 kts | 31° |
| 2026-05-04 18:38 | 50.09562 | -1.94298 | 4977 ft | 109 kts | 29° |
| 2026-05-04 18:38 | 50.10233 | -1.93754 | 4978 ft | 109 kts | 28° |
| 2026-05-04 18:38 | 50.10919 | -1.93222 | 4979 ft | 110 kts | 27° |
| 2026-05-04 18:39 | 50.11610 | -1.92703 | 4979 ft | 110 kts | 27° |
| 2026-05-04 18:39 | 50.12304 | -1.92195 | 4978 ft | 110 kts | 26° |
| 2026-05-04 18:39 | 50.13006 | -1.91690 | 4979 ft | 110 kts | 26° |
| 2026-05-04 18:39 | 50.13701 | -1.91198 | 4979 ft | 110 kts | 26° |
| 2026-05-04 18:40 | 50.14404 | -1.90705 | 4979 ft | 110 kts | 26° |
| 2026-05-04 18:40 | 50.15099 | -1.90221 | 4979 ft | 110 kts | 26° |
| 2026-05-04 18:40 | 50.15800 | -1.89736 | 4979 ft | 110 kts | 26° |
| 2026-05-04 18:40 | 50.16503 | -1.89251 | 4979 ft | 110 kts | 26° |
| 2026-05-04 18:41 | 50.17197 | -1.88773 | 4979 ft | 110 kts | 25° |
| 2026-05-04 18:41 | 50.17897 | -1.88293 | 4979 ft | 109 kts | 25° |
| 2026-05-04 18:41 | 50.18596 | -1.87815 | 4979 ft | 109 kts | 25° |
| 2026-05-04 18:41 | 50.19299 | -1.87334 | 4979 ft | 109 kts | 25° |
| 2026-05-04 18:42 | 50.19996 | -1.86858 | 4979 ft | 109 kts | 25° |
| 2026-05-04 18:42 | 50.20692 | -1.86382 | 4978 ft | 109 kts | 25° |
| 2026-05-04 18:42 | 50.21392 | -1.85904 | 4979 ft | 109 kts | 25° |
| 2026-05-04 18:42 | 50.22092 | -1.85427 | 4979 ft | 110 kts | 25° |
| 2026-05-04 18:43 | 50.22791 | -1.84951 | 4978 ft | 110 kts | 25° |
| 2026-05-04 18:43 | 50.23496 | -1.84469 | 4979 ft | 110 kts | 25° |
| 2026-05-04 18:43 | 50.24194 | -1.83993 | 4979 ft | 110 kts | 25° |
| 2026-05-04 18:43 | 50.24903 | -1.83508 | 4979 ft | 110 kts | 25° |
| 2026-05-04 18:44 | 50.25601 | -1.83031 | 4978 ft | 110 kts | 25° |
| 2026-05-04 18:44 | 50.26073 | -1.82708 | 4979 ft | 110 kts | 25° |
| 2026-05-04 18:44 | 50.27008 | -1.82069 | 4978 ft | 110 kts | 25° |
| 2026-05-04 18:44 | 50.27707 | -1.81591 | 4978 ft | 110 kts | 25° |
| 2026-05-04 18:45 | 50.28404 | -1.81115 | 4978 ft | 109 kts | 25° |
| 2026-05-04 18:45 | 50.29098 | -1.80641 | 4978 ft | 109 kts | 25° |
| 2026-05-04 18:45 | 50.29797 | -1.80165 | 4978 ft | 109 kts | 25° |
| 2026-05-04 18:45 | 50.30498 | -1.79688 | 4978 ft | 110 kts | 25° |
| 2026-05-04 18:46 | 50.31208 | -1.79205 | 4978 ft | 110 kts | 25° |
| 2026-05-04 18:46 | 50.31905 | -1.78729 | 4978 ft | 110 kts | 25° |
| 2026-05-04 18:46 | 50.32603 | -1.78253 | 4979 ft | 110 kts | 25° |
| 2026-05-04 18:46 | 50.33303 | -1.77772 | 4979 ft | 110 kts | 25° |
| 2026-05-04 18:47 | 50.34002 | -1.77293 | 4980 ft | 110 kts | 25° |
| 2026-05-04 18:47 | 50.34709 | -1.76808 | 4980 ft | 110 kts | 25° |
| 2026-05-04 18:47 | 50.35402 | -1.76333 | 4980 ft | 110 kts | 25° |
| 2026-05-04 18:47 | 50.36108 | -1.75848 | 4979 ft | 110 kts | 25° |
| 2026-05-04 18:48 | 50.36809 | -1.75368 | 4978 ft | 109 kts | 25° |
| 2026-05-04 18:48 | 50.37509 | -1.74887 | 4977 ft | 110 kts | 25° |
| 2026-05-04 18:48 | 50.38199 | -1.74413 | 4977 ft | 109 kts | 25° |
| 2026-05-04 18:48 | 50.38900 | -1.73932 | 4978 ft | 109 kts | 25° |
| 2026-05-04 18:49 | 50.39601 | -1.73449 | 4980 ft | 110 kts | 25° |
| 2026-05-04 18:49 | 50.40298 | -1.72970 | 4980 ft | 110 kts | 25° |
| 2026-05-04 18:49 | 50.40998 | -1.72489 | 4980 ft | 110 kts | 25° |
| 2026-05-04 18:49 | 50.41709 | -1.72000 | 4979 ft | 110 kts | 25° |
| 2026-05-04 18:50 | 50.42409 | -1.71517 | 4982 ft | 110 kts | 25° |
| 2026-05-04 18:50 | 50.43103 | -1.71039 | 4981 ft | 110 kts | 25° |
| 2026-05-04 18:50 | 50.43810 | -1.70552 | 4984 ft | 110 kts | 25° |
| 2026-05-04 18:50 | 50.44511 | -1.70070 | 4985 ft | 110 kts | 25° |
| 2026-05-04 18:51 | 50.45212 | -1.69587 | 4984 ft | 110 kts | 25° |
| 2026-05-04 18:51 | 50.45916 | -1.69101 | 4983 ft | 110 kts | 25° |
| 2026-05-04 18:51 | 50.46613 | -1.68620 | 4982 ft | 110 kts | 25° |
| 2026-05-04 18:51 | 50.47309 | -1.68140 | 4982 ft | 109 kts | 25° |
| 2026-05-04 18:52 | 50.48009 | -1.67657 | 4983 ft | 110 kts | 25° |
| 2026-05-04 18:52 | 50.48703 | -1.67178 | 4984 ft | 110 kts | 25° |
| 2026-05-04 18:52 | 50.49406 | -1.66693 | 4984 ft | 110 kts | 25° |
| 2026-05-04 18:52 | 50.50107 | -1.66208 | 4985 ft | 110 kts | 25° |
| 2026-05-04 18:53 | 50.50811 | -1.65722 | 4983 ft | 109 kts | 25° |
| 2026-05-04 18:53 | 50.51507 | -1.65241 | 4983 ft | 109 kts | 25° |
| 2026-05-04 18:53 | 50.52199 | -1.64762 | 4982 ft | 110 kts | 25° |
| 2026-05-04 18:53 | 50.52956 | -1.64647 | 4977 ft | 113 kts | 347° |
| 2026-05-04 18:54 | 50.53581 | -1.65424 | 4982 ft | 118 kts | 310° |
| 2026-05-04 18:54 | 50.54034 | -1.66493 | 4982 ft | 118 kts | 306° |
| 2026-05-04 18:54 | 50.54476 | -1.67591 | 4981 ft | 118 kts | 304° |
| 2026-05-04 18:54 | 50.54897 | -1.68708 | 4983 ft | 119 kts | 305° |
| 2026-05-04 18:55 | 50.55344 | -1.69796 | 4976 ft | 119 kts | 308° |
| 2026-05-04 18:55 | 50.56284 | -1.71918 | 4982 ft | 119 kts | 309° |
| 2026-05-04 18:55 | 50.56760 | -1.72981 | 4970 ft | 119 kts | 309° |
| 2026-05-04 18:56 | 50.57240 | -1.74051 | 4969 ft | 118 kts | 309° |
| 2026-05-04 18:56 | 50.57713 | -1.75104 | 4976 ft | 119 kts | 309° |
| 2026-05-04 18:56 | 50.58188 | -1.76160 | 4977 ft | 119 kts | 309° |
| 2026-05-04 18:56 | 50.58663 | -1.77221 | 4982 ft | 119 kts | 309° |
| 2026-05-04 18:57 | 50.59142 | -1.78294 | 4975 ft | 119 kts | 309° |
| 2026-05-04 18:57 | 50.59610 | -1.79343 | 4973 ft | 118 kts | 308° |
| 2026-05-04 18:57 | 50.60086 | -1.80409 | 4979 ft | 118 kts | 308° |
| 2026-05-04 18:57 | 50.60556 | -1.81461 | 4985 ft | 118 kts | 309° |
| 2026-05-04 18:58 | 50.61032 | -1.82524 | 4980 ft | 119 kts | 309° |
| 2026-05-04 18:58 | 50.61504 | -1.83583 | 4985 ft | 118 kts | 308° |
| 2026-05-04 18:58 | 50.61977 | -1.84636 | 4992 ft | 119 kts | 309° |
| 2026-05-04 18:58 | 50.62457 | -1.85705 | 4987 ft | 119 kts | 309° |
| 2026-05-04 18:59 | 50.62937 | -1.86775 | 4983 ft | 119 kts | 308° |
| 2026-05-04 18:59 | 50.63413 | -1.87838 | 4980 ft | 118 kts | 309° |
| 2026-05-04 18:59 | 50.63881 | -1.88883 | 4979 ft | 118 kts | 309° |
| 2026-05-04 18:59 | 50.64359 | -1.89952 | 4991 ft | 118 kts | 309° |
| 2026-05-04 19:00 | 50.64831 | -1.91007 | 4991 ft | 119 kts | 309° |
| 2026-05-04 19:00 | 50.65312 | -1.92083 | 4947 ft | 121 kts | 309° |
| 2026-05-04 19:00 | 50.65774 | -1.93118 | 4799 ft | 113 kts | 309° |
| 2026-05-04 19:00 | 50.66221 | -1.94137 | 4621 ft | 112 kts | 309° |
| 2026-05-04 19:01 | 50.66658 | -1.95136 | 4437 ft | 111 kts | 309° |
| 2026-05-04 19:01 | 50.67097 | -1.96145 | 4262 ft | 111 kts | 309° |
| 2026-05-04 19:01 | 50.67533 | -1.97154 | 4087 ft | 111 kts | 309° |
| 2026-05-04 19:01 | 50.67963 | -1.98161 | 3926 ft | 111 kts | 309° |
| 2026-05-04 19:02 | 50.68394 | -1.99173 | 3748 ft | 112 kts | 309° |
| 2026-05-04 19:02 | 50.68824 | -2.00192 | 3568 ft | 112 kts | 309° |
| 2026-05-04 19:02 | 50.69259 | -2.01228 | 3393 ft | 111 kts | 309° |
| 2026-05-04 19:02 | 50.69674 | -2.02223 | 3214 ft | 108 kts | 309° |
| 2026-05-04 19:03 | 50.70079 | -2.03203 | 3045 ft | 105 kts | 309° |
| 2026-05-04 19:03 | 50.70455 | -2.04126 | 3002 ft | 95 kts | 309° |
| 2026-05-04 19:03 | 50.70795 | -2.04974 | 3003 ft | 88 kts | 309° |
| 2026-05-04 19:03 | 50.71113 | -2.05772 | 2996 ft | 85 kts | 308° |
| 2026-05-04 19:04 | 50.71421 | -2.06547 | 2994 ft | 83 kts | 308° |
| 2026-05-04 19:04 | 50.71845 | -2.07226 | 2851 ft | 88 kts | 342° |
| 2026-05-04 19:04 | 50.72434 | -2.07225 | 2710 ft | 86 kts | 28° |
| 2026-05-04 19:04 | 50.72932 | -2.06715 | 2565 ft | 86 kts | 39° |
| 2026-05-04 19:05 | 50.73411 | -2.06133 | 2415 ft | 87 kts | 40° |
| 2026-05-04 19:05 | 50.73881 | -2.05544 | 2274 ft | 86 kts | 40° |
| 2026-05-04 19:05 | 50.74284 | -2.04860 | 2145 ft | 84 kts | 57° |
| 2026-05-04 19:05 | 50.74589 | -2.04089 | 2032 ft | 82 kts | 58° |
| 2026-05-04 19:06 | 50.74806 | -2.03298 | 1999 ft | 75 kts | 69° |
| 2026-05-04 19:06 | 50.74941 | -2.02521 | 1997 ft | 70 kts | 72° |
| 2026-05-04 19:06 | 50.75058 | -2.01800 | 2002 ft | 65 kts | 71° |
| 2026-05-04 19:06 | 50.75171 | -2.01126 | 1991 ft | 61 kts | 71° |
| 2026-05-04 19:07 | 50.75283 | -2.00476 | 1959 ft | 63 kts | 71° |
| 2026-05-04 19:07 | 50.75401 | -1.99788 | 1890 ft | 67 kts | 71° |
| 2026-05-04 19:07 | 50.75523 | -1.99064 | 1813 ft | 69 kts | 71° |
| 2026-05-04 19:07 | 50.75645 | -1.98325 | 1726 ft | 70 kts | 71° |
| 2026-05-04 19:08 | 50.75774 | -1.97559 | 1635 ft | 72 kts | 71° |
| 2026-05-04 19:08 | 50.75903 | -1.96791 | 1539 ft | 73 kts | 72° |
| 2026-05-04 19:08 | 50.76035 | -1.96009 | 1447 ft | 74 kts | 72° |
| 2026-05-04 19:08 | 50.76168 | -1.95220 | 1352 ft | 75 kts | 73° |
| 2026-05-04 19:09 | 50.76302 | -1.94423 | 1253 ft | 76 kts | 73° |
| 2026-05-04 19:09 | 50.76437 | -1.93616 | 1153 ft | 76 kts | 73° |
| 2026-05-04 19:09 | 50.76573 | -1.92799 | 1050 ft | 77 kts | 75° |
| 2026-05-04 19:09 | 50.76711 | -1.91978 | 947 ft | 78 kts | 73° |
| 2026-05-04 19:10 | 50.76853 | -1.91134 | 840 ft | 79 kts | 75° |
| 2026-05-04 19:10 | 50.76994 | -1.90301 | 734 ft | 79 kts | 75° |
| 2026-05-04 19:10 | 50.77135 | -1.89448 | 625 ft | 80 kts | 76° |
| 2026-05-04 19:10 | 50.77278 | -1.88596 | 517 ft | 81 kts | 76° |
| 2026-05-04 19:11 | 50.77419 | -1.87735 | 408 ft | 82 kts | 76° |
| 2026-05-04 19:11 | 50.77560 | -1.86869 | 310 ft | 81 kts | 73° |
| 2026-05-04 19:11 | 50.77692 | -1.86123 | 222 ft | 57 kts | 77° |
| 2026-05-04 19:11 | 50.77786 | -1.85517 | 106 ft | 57 kts | 74° |
| 2026-05-04 19:12 | 50.77894 | -1.84925 | 48 ft | 52 kts | 76° |
| 2026-05-04 19:12 | 50.77840 | -1.84298 | 39 ft | 17 kts | 116° |